createdAt,value
2022-12-08T00:01:13.754Z,-0.47
2022-12-08T00:03:42.041Z,-0.37
2022-12-08T00:06:38.002Z,-0.45
2022-12-08T00:09:22.816Z,-0.39
2022-12-08T00:11:50.032Z,-0.32
2022-12-08T00:14:16.495Z,-0.18
2022-12-08T00:16:43.038Z,-0.15
2022-12-08T00:19:09.546Z,-0.21
2022-12-08T00:21:35.978Z,-0.37
2022-12-08T00:24:02.429Z,-0.38
2022-12-08T00:26:28.850Z,-0.41
2022-12-08T00:28:55.253Z,-0.51
2022-12-08T00:31:21.782Z,-0.52
2022-12-08T00:33:48.280Z,-0.42
2022-12-08T00:36:15.371Z,-0.50
2022-12-08T00:38:43.165Z,-0.56
2022-12-08T00:41:17.977Z,-0.56
2022-12-08T00:43:45.164Z,-0.54
2022-12-08T00:46:12.087Z,-0.43
2022-12-08T00:48:38.991Z,-0.22
2022-12-08T00:51:05.594Z,-0.44
2022-12-08T00:53:32.245Z,-0.44
2022-12-08T00:55:58.744Z,-0.47
2022-12-08T00:58:25.216Z,-0.53
2022-12-08T01:00:51.850Z,-0.57
2022-12-08T01:03:18.337Z,-0.53
2022-12-08T01:05:45.657Z,-0.54
2022-12-08T01:08:12.335Z,-0.55
2022-12-08T01:10:39.529Z,-0.44
2022-12-08T01:13:06.360Z,-0.44
2022-12-08T01:15:32.763Z,-0.48
2022-12-08T01:17:59.258Z,-0.54
2022-12-08T01:20:25.789Z,-0.62
2022-12-08T01:22:52.178Z,-0.53
2022-12-08T01:25:18.670Z,-0.55
2022-12-08T01:27:46.052Z,-0.53
2022-12-08T01:30:13.236Z,-0.51
2022-12-08T01:32:39.669Z,-0.59
2022-12-08T01:35:07.066Z,-0.58
2022-12-08T01:37:33.496Z,-0.60
2022-12-08T01:39:59.934Z,-0.56
2022-12-08T01:42:26.576Z,-0.49
2022-12-08T01:44:57.243Z,-0.53
2022-12-08T01:47:28.875Z,-0.59
2022-12-08T01:49:55.450Z,-0.64
2022-12-08T01:52:42.234Z,-0.68
2022-12-08T01:55:15.558Z,-0.72
2022-12-08T01:57:47.558Z,-0.66
2022-12-08T02:00:17.200Z,-0.66
2022-12-08T02:02:54.402Z,-0.74
2022-12-08T02:05:23.582Z,-0.72
2022-12-08T02:07:51.497Z,-0.74
2022-12-08T02:10:22.598Z,-0.71
2022-12-08T02:12:51.679Z,-0.68
2022-12-08T02:15:18.608Z,-0.75
2022-12-08T02:18:12.210Z,-0.73
2022-12-08T02:20:53.763Z,-0.45
2022-12-08T02:23:36.080Z,-0.50
2022-12-08T02:26:38.182Z,-0.67
2022-12-08T02:29:25.079Z,-0.55
2022-12-08T02:32:28.873Z,-0.55
2022-12-08T02:35:08.123Z,-0.63
2022-12-08T02:38:00.410Z,-0.63
2022-12-08T02:40:35.125Z,-0.64
2022-12-08T02:43:14.163Z,-0.73
2022-12-08T02:45:57.790Z,-0.65
2022-12-08T02:48:27.681Z,-0.57
2022-12-08T02:50:54.078Z,-0.52
2022-12-08T02:53:21.124Z,-0.65
2022-12-08T02:56:24.552Z,-0.52
2022-12-08T02:59:02.166Z,-0.56
2022-12-08T03:02:01.059Z,-0.75
2022-12-08T03:04:43.089Z,-0.77
2022-12-08T03:07:22.126Z,-0.73
2022-12-08T03:10:01.315Z,-0.76
2022-12-08T03:12:58.971Z,-0.63
2022-12-08T03:15:25.790Z,-0.71
2022-12-08T03:17:57.358Z,-0.61
2022-12-08T03:20:26.006Z,-0.72
2022-12-08T03:22:55.835Z,-0.41
2022-12-08T03:25:24.605Z,-0.61
2022-12-08T03:27:52.117Z,-0.63
2022-12-08T03:30:19.123Z,-0.63
2022-12-08T03:32:56.028Z,-0.34
2022-12-08T03:35:29.438Z,-0.42
2022-12-08T03:38:14.954Z,-0.28
2022-12-08T03:40:42.019Z,-0.51
2022-12-08T03:43:08.447Z,-0.35
2022-12-08T03:45:34.973Z,-0.36
2022-12-08T03:48:01.510Z,-0.44
2022-12-08T03:50:27.915Z,-0.64
2022-12-08T03:52:54.333Z,-0.55
2022-12-08T03:55:22.161Z,-0.51
2022-12-08T03:57:48.571Z,-0.52
2022-12-08T04:00:16.966Z,-0.67
2022-12-08T04:02:43.637Z,-0.59
2022-12-08T04:05:10.288Z,-0.66
2022-12-08T04:07:36.833Z,-0.66
2022-12-08T04:10:05.770Z,-0.77
2022-12-08T04:12:32.437Z,-0.52
2022-12-08T04:14:58.835Z,-0.64
2022-12-08T04:17:25.280Z,-0.60
2022-12-08T04:19:51.739Z,-0.62
2022-12-08T04:22:18.174Z,-0.63
2022-12-08T04:24:44.617Z,-0.71
2022-12-08T04:27:11.021Z,-0.60
2022-12-08T04:29:37.432Z,-0.75
2022-12-08T04:32:06.195Z,-0.63
2022-12-08T04:34:32.864Z,-0.60
2022-12-08T04:36:59.278Z,-0.62
2022-12-08T04:39:25.748Z,-0.66
2022-12-08T04:41:52.201Z,-0.71
2022-12-08T04:44:18.693Z,-0.76
2022-12-08T04:46:45.225Z,-0.65
2022-12-08T04:49:11.674Z,-0.63
2022-12-08T04:51:38.107Z,-0.58
2022-12-08T04:54:05.395Z,-0.64
2022-12-08T04:56:31.813Z,-0.61
2022-12-08T04:58:58.212Z,-0.53
2022-12-08T05:01:24.726Z,-0.59
2022-12-08T05:03:51.284Z,-0.59
2022-12-08T05:06:17.741Z,-0.64
2022-12-08T05:08:46.979Z,-0.66
2022-12-08T05:11:13.663Z,-0.62
2022-12-08T05:13:40.248Z,-0.59
2022-12-08T05:16:15.304Z,-0.60
2022-12-08T05:18:42.897Z,-0.58
2022-12-08T05:21:09.402Z,-0.46
2022-12-08T05:23:36.208Z,-0.49
2022-12-08T05:26:02.666Z,-0.48
2022-12-08T05:28:44.634Z,-0.53
2022-12-08T05:31:13.204Z,-0.53
2022-12-08T05:33:40.083Z,-0.50
2022-12-08T05:36:07.193Z,-0.54
2022-12-08T05:38:33.919Z,-0.60
2022-12-08T05:41:00.446Z,-0.61
2022-12-08T05:43:27.186Z,-0.73
2022-12-08T05:45:53.745Z,-0.76
2022-12-08T05:48:20.258Z,-0.81
2022-12-08T05:50:47.928Z,-0.72
2022-12-08T05:53:15.581Z,-0.66
2022-12-08T05:55:42.022Z,-0.63
2022-12-08T05:58:13.610Z,-0.57
2022-12-08T06:00:40.621Z,-0.59
2022-12-08T06:03:08.277Z,-0.57
2022-12-08T06:05:35.839Z,-0.59
2022-12-08T06:08:02.359Z,-0.55
2022-12-08T06:10:29.434Z,-0.57
2022-12-08T06:12:55.884Z,-0.61
2022-12-08T06:15:23.351Z,-0.70
2022-12-08T06:17:49.880Z,-0.72
2022-12-08T06:20:16.427Z,-0.75
2022-12-08T06:22:43.708Z,-0.83
2022-12-08T06:25:10.497Z,-0.91
2022-12-08T06:27:36.937Z,-0.96
2022-12-08T06:30:04.956Z,-0.93
2022-12-08T06:32:31.617Z,-0.96
2022-12-08T06:34:58.305Z,-0.97
2022-12-08T06:37:24.774Z,-1.00
2022-12-08T06:39:51.801Z,-1.02
2022-12-08T06:42:38.294Z,-1.01
2022-12-08T06:45:05.224Z,-1.08
2022-12-08T06:47:31.771Z,-1.05
2022-12-08T06:50:00.201Z,-1.04
2022-12-08T06:52:26.588Z,-1.09
2022-12-08T06:54:53.161Z,-1.00
2022-12-08T06:57:21.083Z,-1.00
2022-12-08T06:59:47.504Z,-0.99
2022-12-08T07:02:13.960Z,-0.95
2022-12-08T07:04:41.218Z,-0.96
2022-12-08T07:07:07.679Z,-1.00
2022-12-08T07:09:34.157Z,-1.00
2022-12-08T07:12:01.351Z,-0.99
2022-12-08T07:14:27.847Z,-1.06
2022-12-08T07:16:54.254Z,-1.07
2022-12-08T07:19:21.695Z,-1.08
2022-12-08T07:21:48.238Z,-1.12
2022-12-08T07:24:14.687Z,-1.14
2022-12-08T07:26:41.417Z,-1.16
2022-12-08T07:29:09.494Z,-1.25
2022-12-08T07:31:36.008Z,-1.30
2022-12-08T07:34:03.351Z,-1.29
2022-12-08T07:36:29.859Z,-1.40
2022-12-08T07:38:56.724Z,-1.37
2022-12-08T07:41:25.820Z,-1.37
2022-12-08T07:43:53.729Z,-1.39
2022-12-08T07:46:22.214Z,-1.46
2022-12-08T07:48:49.543Z,-1.38
2022-12-08T07:51:16.847Z,-1.42
2022-12-08T07:53:51.586Z,-1.36
2022-12-08T07:56:20.649Z,-1.26
2022-12-08T07:58:47.104Z,-1.22
2022-12-08T08:01:27.334Z,-1.15
2022-12-08T08:03:55.710Z,-1.10
2022-12-08T08:06:22.517Z,-1.07
2022-12-08T08:08:49.381Z,-0.99
2022-12-08T08:11:20.969Z,-0.92
2022-12-08T08:13:48.487Z,-0.78
2022-12-08T08:16:15.498Z,-0.84
2022-12-08T08:18:42.198Z,-0.84
2022-12-08T08:21:43.008Z,-0.89
2022-12-08T08:23:55.438Z,-0.85
2022-12-08T08:26:21.901Z,-0.84
2022-12-08T08:28:49.938Z,-0.78
2022-12-08T08:31:16.546Z,-0.76
2022-12-08T08:33:43.050Z,-0.71
2022-12-08T08:36:09.985Z,-0.73
2022-12-08T08:38:39.987Z,-0.75
2022-12-08T08:41:10.952Z,-0.78
2022-12-08T08:43:38.637Z,-0.89
2022-12-08T08:46:06.617Z,-0.87
2022-12-08T08:48:33.642Z,-0.98
2022-12-08T08:51:10.799Z,-0.99
2022-12-08T08:53:37.387Z,-1.01
2022-12-08T08:56:09.571Z,-1.09
2022-12-08T08:58:36.186Z,-1.13
2022-12-08T09:01:02.639Z,-1.14
2022-12-08T09:03:29.079Z,-1.20
2022-12-08T09:05:57.495Z,-1.20
2022-12-08T09:08:24.209Z,-1.26
2022-12-08T09:10:50.861Z,-1.31
2022-12-08T09:13:17.452Z,-1.38
2022-12-08T09:15:43.869Z,-1.36
2022-12-08T09:18:10.368Z,-1.46
2022-12-08T09:20:37.450Z,-1.55
2022-12-08T09:23:03.872Z,-1.59
2022-12-08T09:25:30.294Z,-1.52
2022-12-08T09:27:57.594Z,-1.58
2022-12-08T09:30:24.248Z,-1.65
2022-12-08T09:32:50.780Z,-1.63
2022-12-08T09:35:17.288Z,-1.66
2022-12-08T09:37:43.695Z,-1.58
2022-12-08T09:40:15.688Z,-1.55
2022-12-08T09:42:42.472Z,-1.42
2022-12-08T09:45:16.261Z,-1.28
2022-12-08T09:48:04.771Z,-1.19
2022-12-08T09:50:39.963Z,-1.07
2022-12-08T09:53:12.412Z,-0.90
2022-12-08T09:55:45.256Z,-0.86
2022-12-08T09:58:26.723Z,-0.74
2022-12-08T10:00:53.300Z,-0.73
2022-12-08T10:03:22.778Z,-0.65
2022-12-08T10:05:58.767Z,-0.58
2022-12-08T10:08:36.767Z,-0.51
2022-12-08T10:11:13.662Z,-0.54
2022-12-08T10:14:05.769Z,-0.50
2022-12-08T10:16:40.733Z,-0.47
2022-12-08T10:19:19.018Z,-0.51
2022-12-08T10:21:45.479Z,-0.48
2022-12-08T10:24:23.935Z,-0.34
2022-12-08T10:26:50.430Z,-0.22
2022-12-08T10:29:16.867Z,-0.23
2022-12-08T10:31:43.436Z,-0.23
2022-12-08T10:34:19.257Z,-0.25
2022-12-08T10:36:52.106Z,0.04
2022-12-08T10:39:46.846Z,1.26
2022-12-08T10:42:21.990Z,2.48
2022-12-08T10:44:57.966Z,3.32
2022-12-08T10:47:26.535Z,3.37
2022-12-08T10:50:28.546Z,3.20
2022-12-08T10:53:02.314Z,3.68
2022-12-08T10:55:40.515Z,4.47
2022-12-08T10:58:22.844Z,4.38
2022-12-08T11:00:57.589Z,4.64
2022-12-08T11:03:35.230Z,5.44
2022-12-08T11:06:12.711Z,5.95
2022-12-08T11:08:49.450Z,6.36
2022-12-08T11:11:17.511Z,7.62
2022-12-08T11:13:44.052Z,7.68
2022-12-08T11:16:16.336Z,7.09
2022-12-08T11:18:46.910Z,8.38
2022-12-08T11:21:19.821Z,8.78
2022-12-08T11:23:50.543Z,9.43
2022-12-08T11:26:26.252Z,8.23
2022-12-08T11:28:52.904Z,7.73
2022-12-08T11:31:40.359Z,8.48
2022-12-08T11:34:15.151Z,7.15
2022-12-08T11:36:41.875Z,5.13
2022-12-08T11:39:12.480Z,4.10
2022-12-08T11:41:43.511Z,3.35
2022-12-08T11:44:29.170Z,2.49
2022-12-08T11:47:02.352Z,3.33
2022-12-08T11:49:39.603Z,2.41
2022-12-08T11:52:19.373Z,2.23
2022-12-08T11:54:52.770Z,0.96
2022-12-08T11:57:21.766Z,1.69
2022-12-08T11:59:54.538Z,1.46
2022-12-08T12:02:22.525Z,1.32
2022-12-08T12:04:56.272Z,1.44
2022-12-08T12:07:59.258Z,1.64
2022-12-08T12:11:33.828Z,1.79
2022-12-08T12:14:17.756Z,0.38
2022-12-08T12:17:03.654Z,0.35
2022-12-08T12:19:35.883Z,-0.06
2022-12-08T12:22:14.466Z,-0.09
2022-12-08T12:24:45.121Z,-0.07
2022-12-08T12:27:14.595Z,0.25
2022-12-08T12:29:56.437Z,0.35
2022-12-08T12:32:24.217Z,0.22
2022-12-08T12:34:55.393Z,0.41
2022-12-08T12:37:25.969Z,0.43
2022-12-08T12:39:52.359Z,0.48
2022-12-08T12:42:41.625Z,0.71
2022-12-08T12:45:16.983Z,0.96
2022-12-08T12:48:08.648Z,0.70
2022-12-08T12:50:35.042Z,1.12
2022-12-08T12:53:25.723Z,0.78
2022-12-08T12:55:56.426Z,1.15
2022-12-08T12:58:30.630Z,1.35
2022-12-08T13:01:16.916Z,1.40
2022-12-08T13:03:48.661Z,1.94
2022-12-08T13:06:23.195Z,1.62
2022-12-08T13:08:53.112Z,1.55
2022-12-08T13:11:20.901Z,0.97
2022-12-08T13:14:03.676Z,0.80
2022-12-08T13:16:39.940Z,0.39
2022-12-08T13:19:15.173Z,0.42
2022-12-08T13:21:41.946Z,0.16
2022-12-08T13:24:14.497Z,0.14
2022-12-08T13:27:12.701Z,0.39
2022-12-08T13:29:39.360Z,0.74
2022-12-08T13:32:09.572Z,0.57
2022-12-08T13:34:42.691Z,0.68
2022-12-08T13:37:12.048Z,0.55
2022-12-08T13:39:50.821Z,0.16
2022-12-08T13:42:24.916Z,0.55
2022-12-08T13:59:28.309Z,-0.06
2022-12-08T14:01:57.806Z,-0.66
2022-12-08T14:07:14.439Z,-1.16
2022-12-08T14:09:41.903Z,-0.96
2022-12-08T14:12:17.919Z,-1.00
2022-12-08T14:15:02.341Z,-0.99
2022-12-08T14:17:29.975Z,-0.92
2022-12-08T14:20:11.669Z,-1.13
2022-12-08T14:22:40.648Z,-1.10
2022-12-08T14:25:13.956Z,-1.60
2022-12-08T14:27:40.450Z,-1.55
2022-12-08T14:30:16.107Z,-1.66
2022-12-08T14:33:13.398Z,-1.86
2022-12-08T14:35:40.737Z,-1.95
2022-12-08T14:38:14.567Z,-1.92
2022-12-08T14:40:47.001Z,-1.95
2022-12-08T14:43:18.867Z,-1.87
2022-12-08T14:45:46.611Z,-2.26
2022-12-08T14:48:42.699Z,-2.10
2022-12-08T14:51:21.646Z,-2.36
2022-12-08T14:54:14.824Z,-2.66
2022-12-08T14:56:56.235Z,-2.41
2022-12-08T14:59:23.094Z,-2.56
2022-12-08T15:01:53.405Z,-2.44
2022-12-08T15:04:29.158Z,-2.92
2022-12-08T15:07:06.779Z,-2.78
2022-12-08T15:09:39.566Z,-2.61
2022-12-08T15:12:12.014Z,-2.80
2022-12-08T15:14:54.769Z,-2.88
2022-12-08T15:17:34.183Z,-2.72
2022-12-08T15:20:02.161Z,-2.59
2022-12-08T15:22:30.524Z,-3.19
2022-12-08T15:24:57.441Z,-3.46
2022-12-08T15:27:25.701Z,-3.41
2022-12-08T15:29:52.260Z,-3.31
2022-12-08T15:32:23.853Z,-3.17
2022-12-08T15:34:50.784Z,-2.95
2022-12-08T15:37:26.468Z,-2.81
2022-12-08T15:39:53.466Z,-2.93
2022-12-08T15:42:19.866Z,-2.69
2022-12-08T15:44:46.382Z,-2.89
2022-12-08T15:47:16.759Z,-2.87
2022-12-08T15:49:43.546Z,-3.05
2022-12-08T15:52:18.297Z,-2.94
2022-12-08T15:54:44.766Z,-2.70
2022-12-08T15:57:53.413Z,-2.52
2022-12-08T16:09:12.173Z,-2.69
2022-12-08T16:12:06.551Z,-2.62
2022-12-08T16:17:21.886Z,-2.31
2022-12-08T16:19:48.344Z,-2.36
2022-12-08T16:25:18.268Z,-2.74
2022-12-08T16:28:12.448Z,-2.83
2022-12-08T16:30:33.791Z,-2.76
2022-12-08T16:33:00.203Z,-2.79
2022-12-08T16:35:26.637Z,-2.74
2022-12-08T16:37:53.065Z,-2.42
2022-12-08T16:40:19.585Z,-2.71
2022-12-08T16:42:48.345Z,-2.94
2022-12-08T16:45:25.230Z,-2.87
2022-12-08T16:47:54.535Z,-2.88
2022-12-08T16:50:22.879Z,-2.72
2022-12-08T16:52:50.506Z,-2.67
2022-12-08T16:55:19.279Z,-2.75
2022-12-08T16:57:47.375Z,-2.91
2022-12-08T17:00:16.852Z,-2.92
2022-12-08T17:02:43.586Z,-2.66
2022-12-08T17:05:13.519Z,-2.85
2022-12-08T17:07:41.142Z,-2.90
2022-12-08T17:10:09.482Z,-3.16
2022-12-08T17:12:36.003Z,-3.14
2022-12-08T17:15:05.268Z,-3.08
2022-12-08T17:17:34.411Z,-2.81
2022-12-08T17:20:04.874Z,-2.66
2022-12-08T17:22:32.769Z,-2.78
2022-12-08T17:24:59.281Z,-2.87
2022-12-08T17:27:25.837Z,-3.18
2022-12-08T17:29:52.854Z,-2.81
2022-12-08T17:32:19.919Z,-2.80
2022-12-08T17:34:46.914Z,-2.77
2022-12-08T17:37:13.891Z,-2.68
2022-12-08T17:39:40.454Z,-2.86
2022-12-08T17:42:07.255Z,-3.12
2022-12-08T17:44:33.904Z,-2.90
2022-12-08T17:47:01.074Z,-2.99
2022-12-08T17:49:32.878Z,-2.98
2022-12-08T17:52:01.313Z,-3.02
2022-12-08T17:54:28.661Z,-2.88
2022-12-08T17:56:58.549Z,-2.95
2022-12-08T17:59:26.476Z,-2.79
2022-12-08T18:01:54.058Z,-2.80
2022-12-08T18:04:21.159Z,-2.89
2022-12-08T18:06:48.889Z,-2.57
2022-12-08T18:09:15.692Z,-2.95
2022-12-08T18:11:42.838Z,-2.96
2022-12-08T18:14:11.746Z,-2.83
2022-12-08T18:16:43.551Z,-2.71
2022-12-08T18:19:11.648Z,-2.75
2022-12-08T18:21:38.919Z,-2.72
2022-12-08T18:24:06.371Z,-2.68
2022-12-08T18:26:32.948Z,-2.58
2022-12-08T18:29:00.072Z,-2.51
2022-12-08T18:31:26.891Z,-2.68
2022-12-08T18:33:53.911Z,-2.46
2022-12-08T18:36:24.923Z,-2.47
2022-12-08T18:38:52.403Z,-2.53
2022-12-08T18:41:24.476Z,-2.69
2022-12-08T18:43:52.236Z,-2.75
2022-12-08T18:46:18.729Z,-2.54
2022-12-08T18:48:49.242Z,-2.41
2022-12-08T18:51:23.074Z,-2.68
2022-12-08T18:53:50.347Z,-2.58
2022-12-08T18:56:23.894Z,-2.42
2022-12-08T18:58:50.486Z,-2.40
2022-12-08T19:01:19.023Z,-2.33
2022-12-08T19:04:11.967Z,-2.41
2022-12-08T19:06:33.439Z,-2.37
2022-12-08T19:09:00.084Z,-2.33
2022-12-08T19:11:28.980Z,-2.30
2022-12-08T19:13:55.757Z,-2.35
2022-12-08T19:16:24.057Z,-2.26
2022-12-08T19:18:50.508Z,-2.27
2022-12-08T19:21:17.287Z,-2.33
2022-12-08T19:23:43.892Z,-2.29
2022-12-08T19:26:11.988Z,-2.35
2022-12-08T19:28:40.936Z,-2.17
2022-12-08T19:31:09.377Z,-2.17
2022-12-08T19:33:37.049Z,-2.25
2022-12-08T19:36:12.139Z,-2.16
2022-12-08T19:38:57.179Z,-2.03
2022-12-08T19:41:43.177Z,-2.14
2022-12-08T19:44:54.362Z,-2.12
2022-12-08T19:47:26.660Z,-2.12
2022-12-08T19:50:17.576Z,-2.05
2022-12-08T19:52:44.446Z,-2.15
2022-12-08T19:55:11.722Z,-2.14
2022-12-08T19:57:38.454Z,-2.15
2022-12-08T20:00:06.433Z,-2.15
2022-12-08T20:02:33.238Z,-2.18
2022-12-08T20:04:59.966Z,-2.25
2022-12-08T20:07:27.208Z,-2.33
2022-12-08T20:09:53.759Z,-2.44
2022-12-08T20:12:20.363Z,-2.45
2022-12-08T20:14:47.108Z,-2.57
2022-12-08T20:17:13.711Z,-2.50
2022-12-08T20:19:40.400Z,-2.50
2022-12-08T20:22:07.008Z,-2.65
2022-12-08T20:24:33.567Z,-2.54
2022-12-08T20:27:00.148Z,-2.58
2022-12-08T20:29:27.444Z,-2.48
2022-12-08T20:31:54.065Z,-2.51
2022-12-08T20:34:20.750Z,-2.67
2022-12-08T20:36:48.188Z,-2.53
2022-12-08T20:39:17.210Z,-2.43
2022-12-08T20:41:45.266Z,-2.52
2022-12-08T20:44:13.125Z,-2.57
2022-12-08T20:46:41.849Z,-2.59
2022-12-08T20:49:11.641Z,-2.52
2022-12-08T20:51:38.332Z,-2.53
2022-12-08T20:54:05.018Z,-2.45
2022-12-08T20:56:32.465Z,-2.48
2022-12-08T20:58:59.283Z,-2.47
2022-12-08T21:01:26.332Z,-2.44
2022-12-08T21:03:53.209Z,-2.42
2022-12-08T21:06:22.785Z,-2.52
2022-12-08T21:08:50.436Z,-2.35
2022-12-08T21:11:17.856Z,-2.43
2022-12-08T21:13:45.976Z,-2.35
2022-12-08T21:16:14.774Z,-2.29
2022-12-08T21:18:42.517Z,-2.31
2022-12-08T21:21:12.343Z,-2.07
2022-12-08T21:23:39.350Z,-1.89
2022-12-08T21:26:17.543Z,-2.01
2022-12-08T21:28:45.035Z,-1.95
2022-12-08T21:31:14.629Z,-1.63
2022-12-08T21:33:42.161Z,-1.71
2022-12-08T21:36:13.397Z,-1.71
2022-12-08T21:38:40.928Z,-1.55
2022-12-08T21:41:14.587Z,-1.46
2022-12-08T21:43:42.430Z,-1.37
2022-12-08T21:46:17.897Z,-1.33
2022-12-08T21:48:44.615Z,-1.47
2022-12-08T21:51:11.293Z,-1.47
2022-12-08T21:53:38.010Z,-1.67
2022-12-08T21:56:09.137Z,-1.13
2022-12-08T21:58:36.019Z,-1.25
2022-12-08T22:01:08.401Z,-1.42
2022-12-08T22:03:36.573Z,-1.15
2022-12-08T22:06:08.488Z,-1.15
2022-12-08T22:08:36.071Z,-1.04
2022-12-08T22:11:03.514Z,-0.98
2022-12-08T22:13:30.137Z,-1.01
2022-12-08T22:15:59.440Z,-0.99
2022-12-08T22:18:26.302Z,-0.92
2022-12-08T22:20:52.991Z,-0.96
2022-12-08T22:23:20.631Z,-1.09
2022-12-08T22:26:07.913Z,-1.18
2022-12-08T22:28:40.242Z,-1.38
2022-12-08T22:31:14.664Z,-1.04
2022-12-08T22:33:42.666Z,-1.09
2022-12-08T22:36:24.565Z,-1.07
2022-12-08T22:38:53.362Z,-0.99
2022-12-08T22:41:21.204Z,-1.16
2022-12-08T22:43:48.236Z,-1.14
2022-12-08T22:46:21.244Z,-1.28
2022-12-08T22:48:48.528Z,-1.37
2022-12-08T22:51:15.837Z,-1.40
2022-12-08T22:53:43.200Z,-1.37
2022-12-08T22:56:11.798Z,-1.37
2022-12-08T22:58:39.938Z,-1.42
2022-12-08T23:01:08.489Z,-1.43
2022-12-08T23:03:35.526Z,-1.45
2022-12-08T23:06:02.400Z,-1.60
2022-12-08T23:08:29.360Z,-1.71
2022-12-08T23:10:55.961Z,-1.88
2022-12-08T23:13:22.830Z,-1.94
2022-12-08T23:15:50.032Z,-1.91
2022-12-08T23:18:21.603Z,-1.97
2022-12-08T23:20:48.308Z,-1.87
2022-12-08T23:23:16.171Z,-1.88
2022-12-08T23:25:43.516Z,-1.95
2022-12-08T23:28:10.696Z,-2.06
2022-12-08T23:30:40.176Z,-2.01
2022-12-08T23:33:06.916Z,-1.96
2022-12-08T23:35:33.646Z,-1.63
2022-12-08T23:38:00.291Z,-1.87
2022-12-08T23:40:26.798Z,-1.77
2022-12-08T23:42:53.469Z,-1.79
2022-12-08T23:45:20.798Z,-1.80
2022-12-08T23:47:47.250Z,-1.64
2022-12-08T23:50:13.704Z,-1.73
2022-12-08T23:52:40.289Z,-1.68
2022-12-08T23:55:07.442Z,-1.82
2022-12-08T23:57:36.151Z,-1.72
